EBOS/OST METAR and TAF weather

Enter ICAO airport designator
Station Type Date Time Source
EBOS METAR 2018/04/27 00:50 UTC NOAA

EBOS 270050Z 20006KT CAVOK 06/04 Q1015 NOSIG


Station Type Date Time Source
EBOS Decoded METAR 2018/04/27 00:50 UTC NOAA

Oostende Airport , Belgium (EBOS) 51-12N 002-52E 5M
Apr 26, 2018 - 08:50 PM EDT / 2018.04.27 0050 UTC
Wind: from the SSW (200 degrees) at 7 MPH (6 KT):0
Visibility: greater than 7 mile(s):0
Temperature: 42 F (6 C)
Dew Point: 39 F (4 C)
Relative Humidity: 86%
Pressure (altimeter): 29.97 in. Hg (1015 hPa)
ob: EBOS 270050Z 20006KT CAVOK 06/04 Q1015 NOSIG
cycle: 1

Station Type Date Time Source
EBOS TAF 2018/04/26 18:27 UTC NOAA

TAF EBOS 261702Z 2618/2724 24013KT 9999 FEW035
BECMG 2700/2703 18005KT
BECMG 2721/2724 20015G25KT


Example: see airport list